메인 페이지
METAR-TAF:

METAR-TAF

공항 :

수쿠르, 파키스탄

위도: 27-43-19N, 경도: 068-47-31E, 고도: 60m

현재 날씨관측

예보는 26분 전, 00:00시(UTC)에 발표되었습니다.
무풍
온도 24°C
습도 78%
기압
시정: 1005m
연무

METAR: OPSK 220000Z 00000KT 2000 HZ NSC 24/20 QNH 1005 NOSIG

시각: 05:26 (00:26 UTC)

예보

예보는 2 시간 56분 전, 21:30시(UTC)에 발표되었습니다.
예보 대상 시간: 22일 00시부터 22일 24시까지 (UTC)
북동5kt, 순간 최대 풍속 15kt
시정: 5000m
연무
일시적
22일 00시부터 22일 04시까지 (UTC)
여러 방향의 바람 3kt
시정: 3000m
연무
22일 1800시부터 (UTC)
10kt
시정: 4000m
고도 3000ft 상공 구름 보통
고도 10000ft 상공 구름 보통
연무

TAF: OPSK 212130Z 2200/2224 05005G15KT 5000 HZ NSC TEMPO 2200/2204 VRB03KT 3000 HZ NSC FM221800 09010KT 4000 HZ SCT030 SCT100

4,000개 이상의 공항 관측 자료 및 예보 (METAR 및 TAF 보고).

지도상에서 검색 가능한 기상관측소가 노란 점과 빨간 점으로 표시되어 있습니다.

기상관측소 명을 보려면 표시 위로 마우스를 이동하세요.

날씨 관측과 예보를 보려면 클릭하세요.

지도 변경 : 확대하려면 엑스 표시가 있는 녹색 버튼, 축소하려면 빼기 표시가 있는 녹색 버튼, 다음 페이지의 지도를 보려면 녹색 화살표를 클릭하세요.


METAR-TAF: